CW4214 Peralejos de las Truchas ES current weather conditions

sailwx.info

Wind from 065 at 1 knots gusting 6

Air temperature 10.0° C
Dewpoint 8.8° C

Last reported at 2020-Aug-12 05:58 UTC.
Time now 2020-Aug-12 06:46 UTC

Location: N 40°36' W 001°54'.
View on Google Maps.

See reports from other nearby stations

  
Tides and Currents Weather Stations Pressure Air Temp Water Temp Dewpoint Dewpoint Depression Visibility Wind Speed Wind Dir Waves Ship Positions
date/time (UTC)wind fromknots sea level pressurealtimeterstation pressurevisibilityair tempwater tempwave heightnotes
2020-Aug-12 05:58 065 1 gusting 6 10.0
2020-Aug-12 05:48 072 1 gusting 2 10.0
2020-Aug-12 05:38 053 0 gusting 6 10.0
2020-Aug-12 05:28 055 0 gusting 0 10.0
2020-Aug-12 05:18 060 0 gusting 0 10.0
2020-Aug-12 05:08 062 10.0
2020-Aug-12 04:58 076 1 gusting 6 10.0
2020-Aug-12 04:48 10.0
2020-Aug-12 04:38 053 0 gusting 6 10.0
2020-Aug-12 04:28 057 0 gusting 1 10.0
2020-Aug-12 04:18 049 0 gusting 6 10.0
2020-Aug-12 04:08 050 0 gusting 7 10.0
2020-Aug-12 03:58 049 1 gusting 7
2020-Aug-12 03:48 053 0 gusting 1 10.6
2020-Aug-12 03:38 054 0 gusting 0
2020-Aug-12 03:28 10.6
2020-Aug-12 03:18 056 1 gusting 1 10.6
2020-Aug-12 03:08 105 10.6
2020-Aug-12 02:58 051 0 gusting 1 11.1
2020-Aug-12 02:48 055 1 gusting 1 11.1
2020-Aug-12 02:38 053 0 gusting 1 11.1
2020-Aug-12 02:28 056 0 gusting 2 11.1
2020-Aug-12 02:18 051 1 gusting 7 11.7
2020-Aug-12 02:08 051 0 gusting 6 11.7
2020-Aug-12 01:58 173 1 gusting 4 11.7
2020-Aug-12 01:48 192 1 gusting 3 11.7
2020-Aug-12 01:38 11.7
2020-Aug-12 01:28 203 1 gusting 2 12.2
2020-Aug-12 01:18 077 0 gusting 3 12.2
2020-Aug-12 01:08 207 1 gusting 6 12.2
2020-Aug-12 00:58 217 2 gusting 6 12.2
2020-Aug-12 00:48 207 1 gusting 1
2020-Aug-12 00:38 308 3 gusting 6 12.2
2020-Aug-12 00:28 350 2 gusting 5 12.2
2020-Aug-12 00:18 028 1 gusting 3 12.2
2020-Aug-12 00:08 357 1 gusting 3 12.2
2020-Aug-11 23:58 061 1 gusting 3 12.2
2020-Aug-11 23:48 344 1 gusting 3 12.2
2020-Aug-11 23:38 342 1 gusting 2 12.2
2020-Aug-11 23:28 331 2 gusting 3 12.2
2020-Aug-11 23:18 326 1 gusting 2 12.2
2020-Aug-11 23:08 321 0 gusting 1 12.2
2020-Aug-11 22:58 324 2 gusting 3 12.2
2020-Aug-11 22:48 328 0 gusting 1 12.8
2020-Aug-11 22:38 344 1 gusting 2 12.8
2020-Aug-11 22:28 335 0 gusting 3 12.2
2020-Aug-11 22:18 127 1 gusting 1 12.8
2020-Aug-11 21:58 101 1 gusting 2 12.8
2020-Aug-11 21:52 133 5 gusting 8 12.8
2020-Aug-11 21:42 147 2 gusting 6 12.8
2020-Aug-11 21:31 131 1 gusting 4 12.8
2020-Aug-11 21:20 261 0 gusting 2
2020-Aug-11 21:10 307 1 gusting 2
2020-Aug-11 21:02 256 1 gusting 3 12.8
2020-Aug-11 20:52 308 1 gusting 2 13.3
2020-Aug-11 20:42 238 0 gusting 2 13.3
2020-Aug-11 20:32 069 1 gusting 3 13.3
2020-Aug-11 20:22 044 1 gusting 4 13.3
2020-Aug-11 20:12 044 3 gusting 5 13.3
2020-Aug-11 20:02 032 1 gusting 3 13.9
2020-Aug-11 19:52 170 3 gusting 6 13.9
2020-Aug-11 19:42 252 3 gusting 6 14.4
2020-Aug-11 19:32 276 0 gusting 1 14.4
2020-Aug-11 19:22 292 14.4
2020-Aug-11 19:10 277 0 gusting 2
2020-Aug-11 19:02 119 15.0
2020-Aug-11 18:49 145
2020-Aug-11 18:41 260 2 gusting 7 16.1
2020-Aug-11 18:29 270 2 gusting 2
2020-Aug-11 18:21 263 6 gusting 11 17.8
2020-Aug-11 18:18 277 6 gusting 11 17.8
2020-Aug-11 18:08 330 1 gusting 4 18.9
2020-Aug-11 17:58 259 8 gusting 19 20.6
2020-Aug-11 17:48 263 1 gusting 4 20.6
2020-Aug-11 17:38 255 20.6
2020-Aug-11 17:28 014 0 gusting 3 20.6
2020-Aug-11 17:18 077 3 gusting 6 20.6
2020-Aug-11 17:08 066 2 gusting 5 21.1
2020-Aug-11 16:58 114 0 gusting 3 21.7
2020-Aug-11 16:48 318 2 gusting 6 22.2
2020-Aug-11 16:38 062 23.3
2020-Aug-11 16:28 246 23.3
2020-Aug-11 16:18 300 3 gusting 6 23.3
2020-Aug-11 16:08 040 0 gusting 5 23.9
2020-Aug-11 15:58 305 1 gusting 4 23.9
2020-Aug-11 15:48 333 1 gusting 6 23.9
2020-Aug-11 15:38 074 1 gusting 5 23.9
2020-Aug-11 15:28 250 0 gusting 1 23.9
2020-Aug-11 15:18 146 23.9
2020-Aug-11 15:08 308 1 gusting 3 23.9
2020-Aug-11 14:58 255 1 gusting 3 23.9
2020-Aug-11 14:48 332 0 gusting 1 23.9
2020-Aug-11 14:38 047 0 gusting 2 23.3
2020-Aug-11 14:28 060 0 gusting 3 23.3
2020-Aug-11 14:18 075 0 gusting 3 23.9
2020-Aug-11 14:08 254 4 gusting 4 24.4
2020-Aug-11 13:58 272 6 gusting 15 25.0
2020-Aug-11 13:48 257 9 gusting 15 26.1
2020-Aug-11 13:38 262 6 gusting 10 27.2
2020-Aug-11 13:28 106 4 gusting 8 27.8
2020-Aug-11 13:18 106 6 gusting 10 27.8
2020-Aug-11 13:08 276 2 gusting 6 28.3
2020-Aug-11 12:58 216 3 gusting 6 28.3
2020-Aug-11 12:46 299 0 gusting 3
2020-Aug-11 12:38 241 3 gusting 6 27.8
2020-Aug-11 12:28 250 5 gusting 10 27.8
2020-Aug-11 12:18 247 4 gusting 10 27.8
2020-Aug-11 12:08 263 5 gusting 11 27.8
2020-Aug-11 11:58 237 3 gusting 9 27.8
2020-Aug-11 11:48 263 4 gusting 10 27.8
2020-Aug-11 11:38 230 4 gusting 9 28.3
2020-Aug-11 11:28 196 2 gusting 6 28.3
2020-Aug-11 11:18 248 3 gusting 9 28.3
2020-Aug-11 11:08 111 5 gusting 11 27.8
2020-Aug-11 10:58 267 1 gusting 5 27.2
2020-Aug-11 10:48 209 3 gusting 6 26.7
2020-Aug-11 10:38 233 4 gusting 8 26.7
2020-Aug-11 10:28 262 2 gusting 11 26.7
2020-Aug-11 10:18 119 3 gusting 10 26.7
2020-Aug-11 10:08 108 5 gusting 10 26.1
2020-Aug-11 09:58 213 3 gusting 9 25.6
2020-Aug-11 09:48 266 1 gusting 4 25.0
2020-Aug-11 09:38 260 3 gusting 8 24.4
2020-Aug-11 09:28 103 3 gusting 7 23.9
2020-Aug-11 09:18 101 0 gusting 5 22.8
2020-Aug-11 09:08 265 1 gusting 3 22.2
2020-Aug-11 08:58 292 1 gusting 3 21.7
2020-Aug-11 08:48 282 2 gusting 4 21.7
2020-Aug-11 08:38 259 1 gusting 4 21.1
2020-Aug-11 08:28 282 0 gusting 4 20.0
2020-Aug-11 08:17 215 1 gusting 3 19.4
2020-Aug-11 08:08 273 1 gusting 3 18.9
2020-Aug-11 07:58 273 1 gusting 2 18.3
2020-Aug-11 07:48 246 0 gusting 2 17.8
2020-Aug-11 07:38 312 17.2
2020-Aug-11 07:28 099 16.7
2020-Aug-11 07:18 16.1
2020-Aug-11 07:08 16.1
2020-Aug-11 06:58 15.6
2020-Aug-11 06:48 15.6
2020-Aug-11 06:38 15.0
2020-Aug-11 06:28 15.0
2020-Aug-11 06:18 119 14.4
2020-Aug-11 06:08 063 15.0
2020-Aug-11 05:58 15.0
2020-Aug-11 05:48 15.0
2020-Aug-11 05:38 15.0
2020-Aug-11 05:28 15.6
2020-Aug-11 05:18 15.6
2020-Aug-11 05:08 067 16.1
2020-Aug-11 04:58 16.1
2020-Aug-11 04:48 260 0 gusting 2 16.7
2020-Aug-11 04:38 16.7
2020-Aug-11 04:28 247 0 gusting 2 16.7
2020-Aug-11 04:18 17.2
2020-Aug-11 04:08 055 17.2
2020-Aug-11 03:58 315 0 gusting 1 17.2
2020-Aug-11 03:48 080 0 gusting 1 17.8
2020-Aug-11 03:38 106 17.8
2020-Aug-11 03:28 042 18.3
2020-Aug-11 03:18 128 18.3
2020-Aug-11 03:08 274 18.3
2020-Aug-11 02:58 310 1 gusting 3 18.9
2020-Aug-11 02:48 18.9
2020-Aug-11 02:38 308 1 gusting 2 18.9
2020-Aug-11 02:28 079 18.9
2020-Aug-11 02:18 080 18.9
2020-Aug-11 02:08 19.4
2020-Aug-11 01:58 262 19.4
2020-Aug-11 01:48 288 0 gusting 2 19.4
2020-Aug-11 01:38 269 19.4
2020-Aug-11 01:28 090 2 gusting 3 20.0
2020-Aug-11 01:18 314 1 gusting 3 20.0
2020-Aug-11 01:08 310 2 gusting 5 20.0
2020-Aug-11 00:58 20.0
2020-Aug-11 00:48 095 1 gusting 3 20.0
2020-Aug-11 00:38 290 2 gusting 4 20.0
2020-Aug-11 00:28 287 4 gusting 8 20.0
2020-Aug-11 00:18 312 2 gusting 5 20.0
2020-Aug-11 00:08 283 1 gusting 3 20.0
2020-Aug-10 23:58 295 4 gusting 6 20.0
2020-Aug-10 23:48 279 2 gusting 3 20.0
2020-Aug-10 23:38 314 20.0
2020-Aug-10 23:28 144 0 gusting 1 20.0
2020-Aug-10 23:18 20.6
2020-Aug-10 23:08 104 1 gusting 6 20.6
2020-Aug-10 22:58 070 21.1
2020-Aug-10 22:48 226 21.7
2020-Aug-10 22:38 340 21.7
2020-Aug-10 22:28 098 2 gusting 6 21.1
2020-Aug-10 22:18 066 0 gusting 2 21.1
2020-Aug-10 22:08 232 21.1
2020-Aug-10 21:58 098 20.6
2020-Aug-10 21:48 041 20.6
2020-Aug-10 21:38 066 0 gusting 5 20.6
2020-Aug-10 21:28 339 20.6
2020-Aug-10 21:18 335 0 gusting 2 21.1
2020-Aug-10 21:08 21.7
2020-Aug-10 20:58 101 0 gusting 2 21.7
2020-Aug-10 20:48 058 2 gusting 5 21.1
2020-Aug-10 20:38 058 1 gusting 3 21.1
2020-Aug-10 20:28 275 0 gusting 4 21.1
2020-Aug-10 20:18 251 0 gusting 2 21.1
2020-Aug-10 20:08 21.1
2020-Aug-10 19:58 083 1 gusting 3 21.1
2020-Aug-10 19:48 085 21.1
2020-Aug-10 19:38
2020-Aug-10 19:28 062 21.7
2020-Aug-10 19:18 22.2
2020-Aug-10 19:08 23.3
2020-Aug-10 18:58 23.9
2020-Aug-10 18:48 25.0
2020-Aug-10 18:38 25.6
2020-Aug-10 18:28 300 0 gusting 3 26.1
2020-Aug-10 18:18 284 0 gusting 1 26.7
2020-Aug-10 18:08 284 0 gusting 1 26.7
2020-Aug-10 17:58 286 2 gusting 3 26.7
2020-Aug-10 17:48 185 1 gusting 3 27.2
2020-Aug-10 17:38 285 3 gusting 4 27.2
2020-Aug-10 17:28 256 2 gusting 6 26.7
2020-Aug-10 17:18 265 3 gusting 6 26.7
2020-Aug-10 17:08 270 4 gusting 6 27.2
2020-Aug-10 16:58 270 3 gusting 6 27.2
2020-Aug-10 16:48 293 1 gusting 4 27.2
2020-Aug-10 16:38 282 4 gusting 8 27.2
2020-Aug-10 11:58 284 6 gusting 13 24.4
2020-Aug-10 11:48 265 5 gusting 10 24.4
2020-Aug-10 11:38 280 3 gusting 7 25.0
2020-Aug-10 11:28 278 6 gusting 10 25.0
2020-Aug-10 11:18 268 4 gusting 9 25.6
2020-Aug-10 11:08 276 5 gusting 11 26.1
2020-Aug-10 10:58 269 4 gusting 8 26.1
2020-Aug-10 10:48 266 6 gusting 10 27.2
2020-Aug-10 10:38 267 9 gusting 15 27.8
2020-Aug-10 10:28 271 7 gusting 14 27.8
2020-Aug-10 10:18 279 5 gusting 8 27.8
2020-Aug-10 10:08 273 6 gusting 9 27.8
2020-Aug-10 09:58 283 3 gusting 9 27.8
2020-Aug-10 09:48 254 5 gusting 11 27.8
2020-Aug-10 09:39 253 1 gusting 2 27.8
2020-Aug-10 09:28 269 4 gusting 9 27.2
2020-Aug-10 09:18 268 2 gusting 7 27.2
2020-Aug-10 09:08 256 4 gusting 8 27.2
2020-Aug-10 08:58 214 3 gusting 6 26.7
2020-Aug-10 08:48 245 2 gusting 7 26.1
2020-Aug-10 08:38 235 2 gusting 6 26.1
2020-Aug-10 08:28 216 2 gusting 7 25.6
2020-Aug-10 08:18 249 1 gusting 4 25.0
2020-Aug-10 08:08 215 1 gusting 3 25.0
2020-Aug-10 07:58 216 2 gusting 7 24.4
2020-Aug-10 07:48 265 1 gusting 5 23.9
2020-Aug-10 07:38 230 0 gusting 2 23.3
2020-Aug-10 07:28 333 22.8
2020-Aug-10 07:18 113 1 gusting 4 22.8
2020-Aug-10 07:08 089 0 gusting 4 22.2
2020-Aug-10 06:58 302 0 gusting 2 22.2
2020-Aug-10 06:48 281 0 gusting 2 21.7
2020-Aug-10 06:38 301 2 gusting 4 21.7
2020-Aug-10 06:28 279 1 gusting 4 21.7
2020-Aug-10 06:18 296 2 gusting 3 21.1
2020-Aug-10 06:08 278 2 gusting 4 21.1